createdAt,value
2022-09-28T00:01:23.286Z,8.73
2022-09-28T00:04:25.562Z,9.18
2022-09-28T00:07:28.736Z,9.40
2022-09-28T00:10:31.242Z,8.73
2022-09-28T00:13:33.859Z,8.45
2022-09-28T00:16:40.894Z,8.68
2022-09-28T00:19:44.840Z,7.93
2022-09-28T00:22:46.925Z,8.23
2022-09-28T00:25:48.958Z,7.53
2022-09-28T00:28:53.840Z,8.18
2022-09-28T00:32:02.603Z,8.27
2022-09-28T00:35:06.097Z,7.35
2022-09-28T00:38:10.050Z,7.65
2022-09-28T00:41:14.285Z,7.68
2022-09-28T00:44:55.434Z,7.35
2022-09-28T00:48:00.642Z,6.60
2022-09-28T00:51:08.035Z,6.80
2022-09-28T00:54:13.041Z,7.00
2022-09-28T00:57:17.126Z,6.40
2022-09-28T01:00:19.796Z,6.95
2022-09-28T01:03:22.394Z,6.80
2022-09-28T01:06:31.313Z,7.00
2022-09-28T01:09:35.678Z,6.00
2022-09-28T01:12:41.069Z,6.10
2022-09-28T01:15:57.118Z,6.40
2022-09-28T01:19:31.454Z,5.95
2022-09-28T01:22:34.791Z,6.93
2022-09-28T01:25:51.123Z,6.72
2022-09-28T01:29:01.093Z,6.22
2022-09-28T01:32:17.437Z,5.50
2022-09-28T01:35:28.702Z,4.97
2022-09-28T01:38:37.678Z,5.43
2022-09-28T01:41:43.890Z,5.20
2022-09-28T01:44:50.012Z,5.10
2022-09-28T01:47:59.865Z,5.80
2022-09-28T01:51:05.304Z,5.68
2022-09-28T01:54:57.825Z,5.72
2022-09-28T01:58:20.988Z,5.30
2022-09-28T02:01:29.710Z,6.07
2022-09-28T02:04:47.236Z,6.25
2022-09-28T02:07:57.486Z,6.30
2022-09-28T02:11:11.248Z,5.70
2022-09-28T02:14:17.570Z,6.05
2022-09-28T02:17:21.626Z,6.05
2022-09-28T02:20:25.249Z,5.97
2022-09-28T02:23:32.757Z,5.80
2022-09-28T02:26:43.233Z,5.38
2022-09-28T02:29:45.323Z,5.45
2022-09-28T02:32:51.488Z,5.32
2022-09-28T02:35:53.692Z,4.88
2022-09-28T02:38:58.397Z,5.32
2022-09-28T02:42:31.984Z,4.65
2022-09-28T02:45:53.689Z,5.00
2022-09-28T02:49:21.711Z,5.07
2022-09-28T02:52:57.548Z,5.47
2022-09-28T02:56:16.499Z,5.10
2022-09-28T02:59:45.278Z,5.65
2022-09-28T03:03:02.798Z,5.18
2022-09-28T03:06:23.776Z,4.82
2022-09-28T03:09:54.033Z,5.63
2022-09-28T03:12:57.824Z,5.53
2022-09-28T03:16:18.094Z,5.63
2022-09-28T03:19:27.753Z,5.43
2022-09-28T03:22:29.968Z,5.90
2022-09-28T03:25:32.037Z,5.50
2022-09-28T03:28:36.106Z,5.43
2022-09-28T03:31:40.314Z,5.20
2022-09-28T03:34:42.701Z,4.88
2022-09-28T03:37:46.440Z,4.70
2022-09-28T03:40:58.730Z,5.15
2022-09-28T03:44:02.602Z,5.25
2022-09-28T03:47:07.671Z,5.28
2022-09-28T03:50:11.336Z,5.45
2022-09-28T03:53:12.956Z,5.30
2022-09-28T03:56:15.989Z,5.75
2022-09-28T03:59:18.484Z,5.57
2022-09-28T04:02:20.529Z,5.53
2022-09-28T04:05:22.805Z,5.72
2022-09-28T04:08:24.981Z,5.68
2022-09-28T04:11:30.038Z,5.90
2022-09-28T04:14:37.095Z,5.20
2022-09-28T04:17:40.191Z,5.57
2022-09-28T04:21:06.782Z,5.95
2022-09-28T04:24:13.195Z,6.18
2022-09-28T04:27:34.200Z,5.85
2022-09-28T04:30:37.995Z,6.35
2022-09-28T04:33:40.426Z,6.10
2022-09-28T04:36:42.644Z,6.32
2022-09-28T04:39:48.180Z,7.43
2022-09-28T04:42:55.172Z,6.07
2022-09-28T04:46:05.683Z,5.63
2022-09-28T04:49:14.873Z,6.47
2022-09-28T04:52:32.360Z,6.18
2022-09-28T04:55:34.605Z,12.30
2022-09-28T04:58:37.040Z,12.40
2022-09-28T05:01:39.670Z,8.80
2022-09-28T05:05:00.884Z,6.55
2022-09-28T05:08:21.630Z,6.07
2022-09-28T05:11:24.100Z,6.18
2022-09-28T05:14:26.651Z,6.70
2022-09-28T05:17:29.131Z,6.75
2022-09-28T05:20:50.811Z,6.82
2022-09-28T05:23:56.198Z,7.03
2022-09-28T05:26:58.840Z,7.30
2022-09-28T05:30:01.313Z,6.93
2022-09-28T05:33:23.733Z,6.60
2022-09-28T05:36:35.754Z,7.43
2022-09-28T05:39:37.984Z,6.38
2022-09-28T05:42:40.834Z,6.95
2022-09-28T05:45:43.001Z,6.78
2022-09-28T05:48:45.431Z,5.82
2022-09-28T05:51:47.731Z,6.97
2022-09-28T05:54:53.339Z,6.30
2022-09-28T05:58:05.768Z,6.72
2022-09-28T06:01:09.018Z,7.05
2022-09-28T06:04:16.139Z,8.10
2022-09-28T06:07:19.626Z,6.38
2022-09-28T06:10:21.972Z,6.55
2022-09-28T06:13:32.108Z,7.38
2022-09-28T06:16:38.275Z,6.70
2022-09-28T06:19:44.692Z,7.35
2022-09-28T06:23:13.629Z,6.72
2022-09-28T06:26:16.901Z,7.05
2022-09-28T06:29:20.159Z,7.20
2022-09-28T06:32:23.170Z,5.70
2022-09-28T06:35:30.398Z,6.18
2022-09-28T06:38:32.762Z,6.15
2022-09-28T06:41:38.520Z,5.95
2022-09-28T06:44:50.659Z,4.95
2022-09-28T06:48:13.527Z,4.70
2022-09-28T06:51:17.001Z,4.13
2022-09-28T06:54:42.345Z,5.10
2022-09-28T06:58:21.215Z,4.25
2022-09-28T07:01:27.017Z,4.68
2022-09-28T07:04:53.081Z,5.25
2022-09-28T07:08:15.036Z,5.40
2022-09-28T07:11:46.836Z,4.57
2022-09-28T07:15:09.218Z,3.97
2022-09-28T07:18:12.678Z,3.10
2022-09-28T07:21:27.846Z,3.90
2022-09-28T07:24:35.440Z,3.47
2022-09-28T07:31:25.292Z,3.67
2022-09-28T07:34:48.864Z,2.33
2022-09-28T07:38:04.591Z,2.63
2022-09-28T07:41:22.455Z,2.15
2022-09-28T07:44:29.197Z,2.08
2022-09-28T07:47:35.126Z,2.72
2022-09-28T07:54:08.655Z,2.97
2022-09-28T08:07:24.383Z,3.42
2022-09-28T08:10:57.793Z,3.80
2022-09-28T08:14:19.191Z,3.20
2022-09-28T08:22:39.287Z,4.50
2022-09-28T08:26:00.030Z,3.58
2022-09-28T08:29:12.191Z,4.10
2022-09-28T08:32:27.413Z,3.70
2022-09-28T08:36:01.079Z,3.70
2022-09-28T08:39:21.887Z,3.42
2022-09-28T08:43:10.296Z,2.97
2022-09-28T08:46:40.477Z,2.40
2022-09-28T08:49:58.177Z,2.60
2022-09-28T08:53:53.904Z,2.78
2022-09-28T08:57:23.401Z,2.65
2022-09-28T09:00:40.389Z,2.33
2022-09-28T09:03:45.314Z,2.90
2022-09-28T09:07:24.910Z,3.78
2022-09-28T09:11:13.451Z,3.80
2022-09-28T09:14:57.799Z,3.72
2022-09-28T09:18:17.839Z,3.35
2022-09-28T09:24:55.390Z,3.47
2022-09-28T09:28:03.241Z,2.95
2022-09-28T09:31:33.394Z,2.92
2022-09-28T09:35:17.245Z,2.28
2022-09-28T09:39:32.565Z,2.15
2022-09-28T09:43:29.346Z,2.40
2022-09-28T09:47:08.139Z,2.40
2022-09-28T09:50:39.710Z,2.10
2022-09-28T09:53:51.261Z,1.92
2022-09-28T09:57:17.627Z,2.38
2022-09-28T10:00:45.970Z,2.38
2022-09-28T10:04:23.500Z,2.05
2022-09-28T10:07:49.083Z,2.05
2022-09-28T10:11:03.183Z,1.95
2022-09-28T10:14:08.251Z,2.45
2022-09-28T10:17:18.146Z,2.28
2022-09-28T10:20:41.012Z,2.60
2022-09-28T10:24:05.214Z,2.78
2022-09-28T10:27:14.807Z,3.17
2022-09-28T10:30:26.821Z,3.25
2022-09-28T10:33:34.776Z,2.58
2022-09-28T10:36:58.430Z,2.80
2022-09-28T10:40:03.156Z,3.33
2022-09-28T10:43:30.685Z,3.22
2022-09-28T10:46:38.421Z,3.10
2022-09-28T10:49:48.972Z,3.17
2022-09-28T10:52:54.250Z,2.78
2022-09-28T10:56:26.883Z,2.65
2022-09-28T10:59:43.538Z,2.78
2022-09-28T11:02:58.224Z,2.90
2022-09-28T11:06:05.291Z,2.63
2022-09-28T11:09:29.850Z,2.08
2022-09-28T11:12:43.181Z,1.40
2022-09-28T11:15:46.033Z,1.40
2022-09-28T11:19:25.760Z,1.00
2022-09-28T11:22:36.539Z,0.90
2022-09-28T11:25:42.705Z,0.80
2022-09-28T11:28:52.772Z,1.10
2022-09-28T11:32:06.461Z,1.20
2022-09-28T11:35:56.978Z,0.95
2022-09-28T11:39:23.771Z,1.13
2022-09-28T11:42:49.837Z,1.10
2022-09-28T11:46:28.647Z,1.38
2022-09-28T11:50:03.341Z,1.70
2022-09-28T11:53:23.471Z,1.40
2022-09-28T11:56:30.538Z,1.13
2022-09-28T11:59:36.999Z,1.20
2022-09-28T12:02:57.855Z,0.90
2022-09-28T12:06:07.755Z,0.80
2022-09-28T12:09:48.499Z,1.00
2022-09-28T12:13:04.492Z,1.17
2022-09-28T12:17:00.535Z,1.10
2022-09-28T12:20:10.036Z,1.20
2022-09-28T12:23:26.127Z,1.00
2022-09-28T12:26:46.489Z,1.00
2022-09-28T12:30:02.236Z,1.35
2022-09-28T12:33:11.687Z,1.30
2022-09-28T12:36:47.660Z,1.40
2022-09-28T12:40:16.226Z,0.60
2022-09-28T12:43:44.333Z,0.70
2022-09-28T12:47:12.440Z,0.73
2022-09-28T12:50:38.748Z,0.90
2022-09-28T12:54:15.806Z,1.00
2022-09-28T12:57:41.047Z,1.00
2022-09-28T13:01:20.139Z,1.30
2022-09-28T13:04:59.905Z,1.40
2022-09-28T13:08:05.868Z,1.60
2022-09-28T13:11:16.098Z,1.60
2022-09-28T13:14:56.746Z,1.30
2022-09-28T13:18:11.326Z,1.42
2022-09-28T13:21:31.627Z,1.63
2022-09-28T13:24:38.879Z,1.40
2022-09-28T13:27:54.689Z,1.30
2022-09-28T13:34:21.263Z,0.97
2022-09-28T13:37:25.771Z,1.10
2022-09-28T13:41:01.693Z,1.20
2022-09-28T13:44:11.017Z,1.10
2022-09-28T13:47:39.329Z,1.02
2022-09-28T13:51:10.822Z,1.50
2022-09-28T13:54:24.812Z,1.70
2022-09-28T13:57:53.984Z,1.58
2022-09-28T14:01:18.138Z,1.60
2022-09-28T14:04:47.828Z,1.67
2022-09-28T14:08:23.431Z,2.30
2022-09-28T14:11:41.010Z,1.83
2022-09-28T14:14:53.051Z,1.92
2022-09-28T14:18:00.573Z,2.30
2022-09-28T14:21:08.306Z,2.00
2022-09-28T14:24:39.346Z,2.15
2022-09-28T14:30:56.817Z,2.10
2022-09-28T14:34:03.526Z,2.55
2022-09-28T14:37:39.606Z,2.30
2022-09-28T14:41:09.944Z,1.55
2022-09-28T14:44:16.445Z,1.90
2022-09-28T14:47:58.154Z,1.42
2022-09-28T14:51:35.638Z,1.80
2022-09-28T14:54:52.322Z,1.70
2022-09-28T14:57:57.372Z,1.52
2022-09-28T15:01:09.729Z,1.50
2022-09-28T15:04:13.673Z,1.52
2022-09-28T15:07:24.590Z,1.33
2022-09-28T15:13:36.318Z,1.38
2022-09-28T15:16:38.407Z,1.65
2022-09-28T15:19:51.775Z,1.77
2022-09-28T15:22:58.695Z,2.05
2022-09-28T15:26:01.708Z,1.70
2022-09-28T15:29:17.406Z,1.70
2022-09-28T15:32:30.313Z,2.03
2022-09-28T15:35:32.335Z,1.92
2022-09-28T15:38:35.709Z,2.30
2022-09-28T15:41:37.831Z,2.17
2022-09-28T15:44:43.102Z,2.20
2022-09-28T15:47:48.305Z,2.40
2022-09-28T15:51:11.149Z,2.45
2022-09-28T15:54:21.558Z,2.30
2022-09-28T15:57:37.728Z,2.30
2022-09-28T16:00:40.401Z,2.10
2022-09-28T16:03:42.341Z,2.60
2022-09-28T16:06:44.335Z,2.80
2022-09-28T16:10:25.556Z,2.63
2022-09-28T16:13:27.256Z,2.35
2022-09-28T16:16:43.309Z,2.50
2022-09-28T16:19:49.071Z,2.50
2022-09-28T16:22:50.995Z,2.10
2022-09-28T16:26:03.798Z,2.00
2022-09-28T16:29:25.996Z,2.17
2022-09-28T16:32:34.208Z,2.50
2022-09-28T16:35:35.735Z,2.20
2022-09-28T16:38:38.746Z,2.10
2022-09-28T16:41:44.349Z,1.98
2022-09-28T16:44:46.992Z,2.10
2022-09-28T16:47:52.758Z,2.10
2022-09-28T16:50:55.309Z,2.28
2022-09-28T16:54:30.104Z,2.20
2022-09-28T16:57:32.170Z,2.15
2022-09-28T17:00:34.070Z,2.13
2022-09-28T17:03:35.825Z,2.17
2022-09-28T17:06:38.809Z,2.25
2022-09-28T17:09:40.578Z,2.53
2022-09-28T17:12:42.317Z,2.28
2022-09-28T17:15:48.403Z,2.05
2022-09-28T17:18:50.141Z,2.65
2022-09-28T17:21:52.712Z,2.47
2022-09-28T17:24:54.357Z,2.47
2022-09-28T17:27:58.368Z,2.20
2022-09-28T17:31:01.660Z,2.28
2022-09-28T17:34:04.261Z,2.55
2022-09-28T17:37:06.980Z,2.83
2022-09-28T17:40:16.808Z,2.80
2022-09-28T17:43:21.033Z,3.00
2022-09-28T17:46:28.375Z,2.72
2022-09-28T17:49:30.396Z,2.83
2022-09-28T17:52:32.231Z,2.70
2022-09-28T17:55:37.429Z,2.33
2022-09-28T17:58:39.438Z,3.10
2022-09-28T18:01:41.346Z,3.00
2022-09-28T18:04:52.508Z,3.10
2022-09-28T18:07:55.415Z,3.03
2022-09-28T18:10:58.227Z,3.80
2022-09-28T18:14:00.684Z,3.60
2022-09-28T18:17:03.532Z,4.57
2022-09-28T18:20:08.460Z,4.75
2022-09-28T18:23:10.585Z,4.75
2022-09-28T18:26:13.921Z,4.97
2022-09-28T18:29:18.351Z,4.90
2022-09-28T18:32:20.356Z,4.78
2022-09-28T18:35:23.455Z,4.38
2022-09-28T18:38:26.597Z,4.00
2022-09-28T18:41:29.424Z,3.90
2022-09-28T18:44:31.498Z,3.90
2022-09-28T18:47:33.556Z,3.88
2022-09-28T18:50:35.362Z,3.90
2022-09-28T18:53:39.794Z,3.90
2022-09-28T18:56:42.004Z,3.85
2022-09-28T18:59:44.686Z,4.20
2022-09-28T19:02:46.866Z,4.25
2022-09-28T19:05:49.052Z,4.80
2022-09-28T19:08:56.508Z,4.35
2022-09-28T19:11:58.511Z,4.63
2022-09-28T19:15:00.297Z,4.53
2022-09-28T19:18:02.413Z,4.28
2022-09-28T19:21:07.326Z,3.92
2022-09-28T19:24:15.940Z,4.28
2022-09-28T19:27:18.115Z,4.20
2022-09-28T19:30:19.801Z,4.63
2022-09-28T19:33:22.342Z,3.72
2022-09-28T19:36:28.533Z,4.10
2022-09-28T19:39:31.451Z,3.92
2022-09-28T19:42:35.462Z,4.25
2022-09-28T19:45:38.084Z,3.97
2022-09-28T19:48:43.439Z,4.25
2022-09-28T19:52:11.539Z,4.60
2022-09-28T19:55:11.250Z,3.65
2022-09-28T19:58:13.192Z,3.50
2022-09-28T20:01:15.231Z,3.90
2022-09-28T20:04:17.275Z,3.88
2022-09-28T20:07:19.329Z,3.80
2022-09-28T20:10:21.061Z,4.10
2022-09-28T20:13:29.072Z,3.80
2022-09-28T20:16:31.026Z,3.90
2022-09-28T20:19:32.845Z,4.15
2022-09-28T20:22:34.702Z,4.47
2022-09-28T20:25:37.025Z,3.83
2022-09-28T20:28:39.147Z,4.53
2022-09-28T20:31:41.220Z,4.25
2022-09-28T20:34:43.007Z,3.88
2022-09-28T20:37:45.100Z,4.32
2022-09-28T20:40:48.239Z,4.35
2022-09-28T20:43:54.828Z,3.88
2022-09-28T20:46:58.089Z,3.92
2022-09-28T20:49:59.936Z,3.47
2022-09-28T20:53:01.838Z,3.78
2022-09-28T20:56:27.632Z,3.92
2022-09-28T20:59:31.272Z,3.42
2022-09-28T21:02:33.313Z,3.50
2022-09-28T21:05:36.266Z,3.92
2022-09-28T21:08:38.125Z,3.40
2022-09-28T21:11:40.329Z,3.92
2022-09-28T21:14:42.245Z,4.00
2022-09-28T21:17:44.101Z,3.72
2022-09-28T21:20:50.812Z,3.75
2022-09-28T21:23:53.841Z,3.63
2022-09-28T21:26:55.980Z,3.13
2022-09-28T21:29:57.911Z,3.10
2022-09-28T21:33:01.440Z,3.45
2022-09-28T21:36:07.581Z,3.30
2022-09-28T21:39:10.609Z,3.13
2022-09-28T21:42:12.575Z,3.50
2022-09-28T21:45:14.648Z,3.55
2022-09-28T21:48:16.649Z,3.92
2022-09-28T21:51:18.865Z,3.70
2022-09-28T21:54:21.409Z,3.22
2022-09-28T21:57:23.345Z,3.47
2022-09-28T22:00:25.539Z,3.13
2022-09-28T22:03:28.591Z,3.45
2022-09-28T22:06:30.443Z,3.53
2022-09-28T22:09:32.308Z,3.40
2022-09-28T22:12:34.151Z,3.38
2022-09-28T22:15:36.029Z,3.40
2022-09-28T22:18:38.421Z,3.75
2022-09-28T22:21:40.533Z,3.13
2022-09-28T22:24:43.324Z,3.10
2022-09-28T22:27:50.826Z,3.50
2022-09-28T22:30:52.710Z,3.45
2022-09-28T22:33:55.032Z,3.08
2022-09-28T22:37:00.928Z,2.95
2022-09-28T22:40:02.691Z,3.35
2022-09-28T22:43:04.635Z,3.10
2022-09-28T22:46:12.209Z,3.20
2022-09-28T22:49:14.226Z,3.13
2022-09-28T22:52:16.265Z,3.10
2022-09-28T22:55:18.249Z,3.10
2022-09-28T22:58:20.214Z,3.58
2022-09-28T23:01:24.062Z,3.10
2022-09-28T23:04:25.967Z,3.10
2022-09-28T23:07:27.695Z,3.40
2022-09-28T23:10:29.653Z,3.20
2022-09-28T23:13:32.247Z,2.63
2022-09-28T23:16:34.107Z,2.50
2022-09-28T23:19:35.917Z,2.70
2022-09-28T23:22:37.855Z,2.55
2022-09-28T23:25:40.043Z,2.53
2022-09-28T23:28:42.770Z,2.65
2022-09-28T23:31:45.447Z,3.00
2022-09-28T23:34:47.395Z,2.60
2022-09-28T23:37:51.031Z,2.78
2022-09-28T23:40:53.235Z,2.78
2022-09-28T23:43:55.255Z,3.13
2022-09-28T23:46:57.633Z,2.97
2022-09-28T23:50:00.038Z,3.28
2022-09-28T23:53:02.008Z,3.42
2022-09-28T23:56:04.207Z,3.53
2022-09-28T23:59:06.224Z,4.32
